createdAt,value
2023-02-27T00:01:45.561Z,1.20
2023-02-27T00:06:59.664Z,1.20
2023-02-27T00:12:02.528Z,1.20
2023-02-27T00:17:10.930Z,1.20
2023-02-27T00:22:14.917Z,1.20
2023-02-27T00:27:17.127Z,1.10
2023-02-27T00:32:29.690Z,1.10
2023-02-27T00:37:35.651Z,1.10
2023-02-27T00:42:46.433Z,1.00
2023-02-27T00:47:59.042Z,1.00
2023-02-27T00:53:02.541Z,0.90
2023-02-27T00:58:04.720Z,0.90
2023-02-27T01:03:13.171Z,0.90
2023-02-27T01:08:24.101Z,0.80
2023-02-27T01:13:35.251Z,0.70
2023-02-27T01:18:58.342Z,0.70
2023-02-27T01:24:11.054Z,0.70
2023-02-27T01:29:34.009Z,0.60
2023-02-27T01:34:43.896Z,0.60
2023-02-27T01:40:00.542Z,0.50
2023-02-27T01:45:31.287Z,0.50
2023-02-27T01:50:38.564Z,0.40
2023-02-27T01:55:49.468Z,0.40
2023-02-27T02:00:55.948Z,0.30
2023-02-27T02:06:12.608Z,0.30
2023-02-27T02:11:20.661Z,0.30
2023-02-27T02:16:53.928Z,0.20
2023-02-27T02:22:36.469Z,0.30
2023-02-27T02:28:27.913Z,0.30
2023-02-27T02:34:08.912Z,0.30
2023-02-27T02:39:33.500Z,0.30
2023-02-27T02:45:12.057Z,0.30
2023-02-27T02:50:35.984Z,0.20
2023-02-27T02:56:21.682Z,0.20
2023-02-27T03:01:59.431Z,0.10
2023-02-27T03:07:13.742Z,0.20
2023-02-27T03:12:22.478Z,0.10
2023-02-27T03:17:40.641Z,0.10
2023-02-27T03:23:02.267Z,0.10
2023-02-27T03:28:12.349Z,0.00
2023-02-27T03:33:36.362Z,0.00
2023-02-27T03:39:15.214Z,0.00
2023-02-27T03:44:56.955Z,-0.10
2023-02-27T03:50:12.594Z,-0.10
2023-02-27T03:56:00.971Z,-0.10
2023-02-27T04:01:08.558Z,-0.20
2023-02-27T04:06:31.147Z,-0.20
2023-02-27T04:11:51.163Z,-0.20
2023-02-27T04:17:23.215Z,-0.20
2023-02-27T04:22:34.704Z,-0.30
2023-02-27T04:28:19.756Z,-0.30
2023-02-27T04:33:34.648Z,-0.30
2023-02-27T04:38:55.322Z,-0.40
2023-02-27T04:44:14.189Z,-0.40
2023-02-27T04:49:31.517Z,-0.40
2023-02-27T04:54:40.420Z,-0.40
2023-02-27T05:00:00.594Z,-0.40
2023-02-27T05:05:09.313Z,-0.50
2023-02-27T05:10:33.252Z,-0.50
2023-02-27T05:16:00.384Z,-0.50
2023-02-27T05:21:43.943Z,-0.50
2023-02-27T05:27:21.253Z,-0.60
2023-02-27T05:32:57.825Z,-0.60
2023-02-27T05:38:26.044Z,-0.60
2023-02-27T05:43:32.165Z,-0.70
2023-02-27T05:48:42.712Z,-0.60
2023-02-27T05:53:50.179Z,-0.60
2023-02-27T05:59:18.928Z,-0.60
2023-02-27T06:04:20.909Z,-0.60
2023-02-27T06:09:22.771Z,-0.60
2023-02-27T06:14:24.879Z,-0.60
2023-02-27T06:19:26.704Z,-0.70
2023-02-27T06:24:28.502Z,-0.70
2023-02-27T06:29:30.355Z,-0.70
2023-02-27T06:34:32.339Z,-0.70
2023-02-27T06:39:34.144Z,-0.70
2023-02-27T06:44:36.177Z,-0.70
2023-02-27T06:49:37.994Z,-0.70
2023-02-27T06:54:39.864Z,-0.70
2023-02-27T06:59:42.708Z,-0.70
2023-02-27T07:04:44.712Z,-0.70
2023-02-27T07:09:46.736Z,-0.70
2023-02-27T07:14:48.561Z,-0.80
2023-02-27T07:19:50.477Z,-0.70
2023-02-27T07:24:53.682Z,-0.70
2023-02-27T07:29:55.508Z,-0.60
2023-02-27T07:34:57.361Z,-0.60
2023-02-27T07:39:59.226Z,-0.50
2023-02-27T07:45:01.460Z,-0.50
2023-02-27T07:50:04.758Z,-0.40
2023-02-27T07:55:07.942Z,-0.40
2023-02-27T08:00:10.473Z,-0.30
2023-02-27T08:05:12.309Z,-0.30
2023-02-27T08:10:16.674Z,-0.10
2023-02-27T08:15:18.495Z,0.00
2023-02-27T08:20:22.787Z,0.10
2023-02-27T08:25:24.870Z,0.20
2023-02-27T08:30:26.730Z,0.30
2023-02-27T08:35:29.085Z,0.40
2023-02-27T08:40:31.000Z,0.50
2023-02-27T08:45:33.450Z,0.60
2023-02-27T08:50:35.281Z,0.70
2023-02-27T08:55:37.392Z,0.80
2023-02-27T09:00:39.613Z,0.90
2023-02-27T09:05:42.012Z,1.10
2023-02-27T09:10:43.953Z,1.20
2023-02-27T09:15:47.634Z,1.40
2023-02-27T09:20:51.254Z,1.40
2023-02-27T09:25:53.107Z,1.60
2023-02-27T09:30:54.941Z,1.70
2023-02-27T09:35:56.997Z,1.90
2023-02-27T09:40:59.602Z,2.00
2023-02-27T09:46:02.336Z,2.20
2023-02-27T09:51:04.677Z,2.30
2023-02-27T09:56:26.656Z,2.50
2023-02-27T10:01:55.398Z,2.60
2023-02-27T10:07:08.054Z,2.80
2023-02-27T10:12:15.440Z,2.90
2023-02-27T10:17:28.378Z,3.00
2023-02-27T10:22:43.795Z,3.10
2023-02-27T10:27:51.062Z,3.20
2023-02-27T10:32:57.223Z,3.30
2023-02-27T10:38:06.079Z,3.40
2023-02-27T10:43:08.045Z,3.40
2023-02-27T10:48:11.002Z,3.50
2023-02-27T10:53:24.276Z,3.60
2023-02-27T10:58:28.483Z,3.70
2023-02-27T11:03:34.563Z,3.80
2023-02-27T11:08:36.410Z,3.90
2023-02-27T11:13:43.202Z,4.00
2023-02-27T11:18:47.104Z,4.10
2023-02-27T11:23:56.554Z,4.20
2023-02-27T11:29:05.550Z,4.20
2023-02-27T11:34:08.375Z,4.40
2023-02-27T11:39:22.258Z,4.30
2023-02-27T11:44:50.085Z,4.30
2023-02-27T11:50:13.441Z,4.40
2023-02-27T11:55:19.548Z,4.60
2023-02-27T12:00:23.860Z,4.80
2023-02-27T12:05:48.185Z,5.00
2023-02-27T12:11:01.754Z,5.00
2023-02-27T12:16:32.772Z,5.00
2023-02-27T12:21:38.557Z,5.00
2023-02-27T12:26:44.860Z,5.00
2023-02-27T12:31:56.639Z,5.10
2023-02-27T12:37:25.661Z,5.20
2023-02-27T12:42:54.858Z,5.50
2023-02-27T12:48:13.486Z,5.70
2023-02-27T12:53:29.827Z,5.70
2023-02-27T12:58:42.491Z,5.70
2023-02-27T13:04:05.726Z,5.70
2023-02-27T13:09:08.603Z,5.70
2023-02-27T13:14:29.212Z,5.70
2023-02-27T13:19:36.244Z,5.70
2023-02-27T13:24:44.003Z,5.70
2023-02-27T13:29:56.770Z,5.80
2023-02-27T13:35:07.133Z,5.70
2023-02-27T13:40:29.270Z,5.70
2023-02-27T13:45:54.371Z,5.80
2023-02-27T13:50:56.212Z,6.10
2023-02-27T13:56:18.887Z,6.20
2023-02-27T14:01:27.370Z,6.20
2023-02-27T14:06:29.667Z,6.20
2023-02-27T14:11:39.726Z,6.10
2023-02-27T14:16:41.584Z,6.00
2023-02-27T14:21:57.078Z,6.00
2023-02-27T14:27:00.455Z,6.00
2023-02-27T14:32:08.034Z,6.30
2023-02-27T14:37:17.182Z,6.30
2023-02-27T14:42:26.987Z,6.40
2023-02-27T14:47:34.552Z,6.40
2023-02-27T14:52:45.603Z,6.20
2023-02-27T14:58:09.777Z,6.20
2023-02-27T15:03:23.295Z,6.40
2023-02-27T15:08:33.829Z,6.50
2023-02-27T15:13:43.901Z,6.40
2023-02-27T15:18:49.669Z,6.40
2023-02-27T15:23:56.585Z,6.40
2023-02-27T15:28:59.912Z,6.20
2023-02-27T15:34:02.593Z,6.10
2023-02-27T15:39:07.358Z,6.00
2023-02-27T15:44:11.528Z,6.00
2023-02-27T15:49:19.301Z,6.10
2023-02-27T15:54:22.967Z,6.30
2023-02-27T15:59:25.543Z,6.50
2023-02-27T16:04:27.488Z,6.50
2023-02-27T16:09:34.983Z,6.40
2023-02-27T16:14:37.889Z,6.30
2023-02-27T16:19:40.479Z,6.10
2023-02-27T16:24:43.619Z,6.10
2023-02-27T16:29:46.354Z,6.00
2023-02-27T16:34:48.435Z,5.90
2023-02-27T16:39:52.196Z,5.80
2023-02-27T16:44:54.208Z,5.70
2023-02-27T16:49:56.038Z,5.60
2023-02-27T16:54:57.860Z,5.50
2023-02-27T16:59:59.847Z,5.40
2023-02-27T17:05:02.979Z,5.30
2023-02-27T17:10:05.313Z,5.20
2023-02-27T17:15:07.676Z,5.20
2023-02-27T17:20:11.330Z,5.10
2023-02-27T17:25:13.919Z,5.00
2023-02-27T17:30:16.530Z,4.90
2023-02-27T17:35:18.549Z,4.90
2023-02-27T17:40:20.563Z,4.80
2023-02-27T17:45:24.551Z,4.70
2023-02-27T17:50:50.386Z,4.70
2023-02-27T18:01:56.004Z,4.50
2023-02-27T18:07:05.754Z,4.40
2023-02-27T18:18:58.001Z,4.30
2023-02-27T18:24:38.384Z,4.20
2023-02-27T18:36:23.350Z,4.00
2023-02-27T18:41:42.689Z,3.90
2023-02-27T18:48:03.475Z,3.90
2023-02-27T18:58:44.217Z,3.80
2023-02-27T19:04:24.666Z,3.70
2023-02-27T20:24:18.640Z,2.90
2023-02-27T20:30:19.272Z,2.80
2023-02-27T20:48:09.887Z,2.70
2023-02-27T20:54:54.103Z,2.70
2023-02-27T21:00:08.742Z,2.70
2023-02-27T21:05:28.947Z,2.80
2023-02-27T21:11:16.286Z,2.80
2023-02-27T21:16:57.676Z,2.80
2023-02-27T21:24:47.313Z,2.80
2023-02-27T21:29:38.006Z,2.80
2023-02-27T21:51:42.586Z,2.60
2023-02-27T21:57:23.025Z,2.60
2023-02-27T22:02:41.597Z,2.50
2023-02-27T22:08:05.818Z,2.50
2023-02-27T22:13:32.659Z,2.40
2023-02-27T22:19:04.881Z,2.40
2023-02-27T22:24:33.373Z,2.30
2023-02-27T22:29:48.041Z,2.30
2023-02-27T22:34:58.214Z,2.20
2023-02-27T22:40:29.882Z,2.20
2023-02-27T22:45:49.378Z,2.20
2023-02-27T22:51:41.933Z,2.20
2023-02-27T22:57:02.276Z,2.00
2023-02-27T23:02:27.072Z,2.00
2023-02-27T23:07:59.437Z,2.00
2023-02-27T23:13:30.453Z,1.90
2023-02-27T23:19:01.846Z,1.90
2023-02-27T23:24:20.569Z,1.90
2023-02-27T23:30:19.383Z,1.80
2023-02-27T23:36:07.642Z,1.70
2023-02-27T23:41:31.095Z,1.60
2023-02-27T23:46:50.713Z,1.60
2023-02-27T23:52:20.474Z,1.50
2023-02-27T23:57:40.058Z,1.50
